sensor_id;sensor_type;location;lat;lon;timestamp;P1;durP1;ratioP1;P2;durP2;ratioP2
74383;SDS011;62824;52.994;-3.936;2024-01-15T00:15:17;3.55;;;0.32;;
74383;SDS011;62824;52.994;-3.936;2024-01-15T00:24:56;0.57;;;0.30;;
74383;SDS011;62824;52.994;-3.936;2024-01-15T00:28:01;2.47;;;0.70;;
74383;SDS011;62824;52.994;-3.936;2024-01-15T00:30:59;1.75;;;0.32;;
74383;SDS011;62824;52.994;-3.936;2024-01-15T00:40:14;1.13;;;0.40;;
74383;SDS011;62824;52.994;-3.936;2024-01-15T00:46:29;0.35;;;0.32;;
74383;SDS011;62824;52.994;-3.936;2024-01-15T00:49:49;0.52;;;0.40;;
74383;SDS011;62824;52.994;-3.936;2024-01-15T00:52:54;2.03;;;0.40;;
74383;SDS011;62824;52.994;-3.936;2024-01-15T01:03:21;1.35;;;0.70;;
74383;SDS011;62824;52.994;-3.936;2024-01-15T01:06:45;1.73;;;0.50;;
74383;SDS011;62824;52.994;-3.936;2024-01-15T01:15:23;1.88;;;0.70;;
74383;SDS011;62824;52.994;-3.936;2024-01-15T01:18:44;1.33;;;0.32;;
74383;SDS011;62824;52.994;-3.936;2024-01-15T01:21:48;1.52;;;0.40;;
74383;SDS011;62824;52.994;-3.936;2024-01-15T01:28:31;1.23;;;0.22;;
74383;SDS011;62824;52.994;-3.936;2024-01-15T01:31:57;0.30;;;0.30;;
74383;SDS011;62824;52.994;-3.936;2024-01-15T01:38:00;2.70;;;0.60;;
74383;SDS011;62824;52.994;-3.936;2024-01-15T01:41:03;1.10;;;0.43;;
74383;SDS011;62824;52.994;-3.936;2024-01-15T01:43:45;0.57;;;0.30;;
74383;SDS011;62824;52.994;-3.936;2024-01-15T01:46:11;1.88;;;0.35;;
74383;SDS011;62824;52.994;-3.936;2024-01-15T02:06:53;2.15;;;0.73;;
74383;SDS011;62824;52.994;-3.936;2024-01-15T02:16:08;1.35;;;0.30;;
74383;SDS011;62824;52.994;-3.936;2024-01-15T02:19:10;0.68;;;0.50;;
74383;SDS011;62824;52.994;-3.936;2024-01-15T02:22:13;1.05;;;0.32;;
74383;SDS011;62824;52.994;-3.936;2024-01-15T02:24:57;0.30;;;0.30;;
74383;SDS011;62824;52.994;-3.936;2024-01-15T02:30:48;7.82;;;0.98;;
74383;SDS011;62824;52.994;-3.936;2024-01-15T02:33:25;2.47;;;0.30;;
74383;SDS011;62824;52.994;-3.936;2024-01-15T02:46:34;2.33;;;0.45;;
74383;SDS011;62824;52.994;-3.936;2024-01-15T02:49:54;1.30;;;0.30;;
74383;SDS011;62824;52.994;-3.936;2024-01-15T02:59:36;0.82;;;0.20;;
74383;SDS011;62824;52.994;-3.936;2024-01-15T03:05:44;0.80;;;0.38;;
74383;SDS011;62824;52.994;-3.936;2024-01-15T03:08:59;1.90;;;0.40;;
74383;SDS011;62824;52.994;-3.936;2024-01-15T03:15:02;2.22;;;0.57;;
74383;SDS011;62824;52.994;-3.936;2024-01-15T03:24:09;1.92;;;0.45;;
74383;SDS011;62824;52.994;-3.936;2024-01-15T03:37:51;0.93;;;0.30;;
74383;SDS011;62824;52.994;-3.936;2024-01-15T03:44:13;1.55;;;0.57;;
74383;SDS011;62824;52.994;-3.936;2024-01-15T04:04:46;0.47;;;0.45;;
74383;SDS011;62824;52.994;-3.936;2024-01-15T04:10:36;1.33;;;0.60;;
74383;SDS011;62824;52.994;-3.936;2024-01-15T04:16:01;1.65;;;0.40;;
74383;SDS011;62824;52.994;-3.936;2024-01-15T04:18:50;0.25;;;0.25;;
74383;SDS011;62824;52.994;-3.936;2024-01-15T04:25:45;2.30;;;0.52;;
74383;SDS011;62824;52.994;-3.936;2024-01-15T04:28:43;0.75;;;0.20;;
74383;SDS011;62824;52.994;-3.936;2024-01-15T04:43:36;0.38;;;0.17;;
74383;SDS011;62824;52.994;-3.936;2024-01-15T04:46:37;0.45;;;0.10;;
74383;SDS011;62824;52.994;-3.936;2024-01-15T04:50:11;0.10;;;0.10;;
74383;SDS011;62824;52.994;-3.936;2024-01-15T04:56:04;0.82;;;0.20;;
74383;SDS011;62824;52.994;-3.936;2024-01-15T04:59:21;0.10;;;0.10;;
74383;SDS011;62824;52.994;-3.936;2024-01-15T05:05:46;2.90;;;0.35;;
74383;SDS011;62824;52.994;-3.936;2024-01-15T05:15:09;2.55;;;0.63;;
74383;SDS011;62824;52.994;-3.936;2024-01-15T05:21:11;1.10;;;0.38;;
74383;SDS011;62824;52.994;-3.936;2024-01-15T05:26:44;1.08;;;0.10;;
74383;SDS011;62824;52.994;-3.936;2024-01-15T05:30:21;1.65;;;0.40;;
74383;SDS011;62824;52.994;-3.936;2024-01-15T05:33:17;3.63;;;0.60;;
74383;SDS011;62824;52.994;-3.936;2024-01-15T05:36:06;1.85;;;0.20;;
74383;SDS011;62824;52.994;-3.936;2024-01-15T05:39:08;4.15;;;0.55;;
74383;SDS011;62824;52.994;-3.936;2024-01-15T05:42:08;0.55;;;0.20;;
74383;SDS011;62824;52.994;-3.936;2024-01-15T05:44:37;0.28;;;0.28;;
74383;SDS011;62824;52.994;-3.936;2024-01-15T06:33:19;2.10;;;0.52;;
74383;SDS011;62824;52.994;-3.936;2024-01-15T06:49:35;1.00;;;0.20;;
74383;SDS011;62824;52.994;-3.936;2024-01-15T07:09:41;0.68;;;0.35;;
74383;SDS011;62824;52.994;-3.936;2024-01-15T07:16:15;2.80;;;0.40;;
74383;SDS011;62824;52.994;-3.936;2024-01-15T07:18:49;0.80;;;0.45;;
74383;SDS011;62824;52.994;-3.936;2024-01-15T07:21:21;1.50;;;0.68;;
74383;SDS011;62824;52.994;-3.936;2024-01-15T07:23:47;1.45;;;0.40;;
74383;SDS011;62824;52.994;-3.936;2024-01-15T07:26:18;2.45;;;0.73;;
74383;SDS011;62824;52.994;-3.936;2024-01-15T07:28:55;2.25;;;0.47;;
74383;SDS011;62824;52.994;-3.936;2024-01-15T07:31:24;3.13;;;0.60;;
74383;SDS011;62824;52.994;-3.936;2024-01-15T10:57:03;3.50;;;1.73;;
74383;SDS011;62824;52.994;-3.936;2024-01-15T11:10:49;4.53;;;1.73;;
74383;SDS011;62824;52.994;-3.936;2024-01-15T11:16:03;5.30;;;1.65;;
74383;SDS011;62824;52.994;-3.936;2024-01-15T11:22:04;1.50;;;0.50;;
74383;SDS011;62824;52.994;-3.936;2024-01-15T11:24:52;3.90;;;0.50;;
74383;SDS011;62824;52.994;-3.936;2024-01-15T11:27:18;3.65;;;2.33;;
74383;SDS011;62824;52.994;-3.936;2024-01-15T11:33:58;1.63;;;0.80;;
74383;SDS011;62824;52.994;-3.936;2024-01-15T11:54:37;1.73;;;0.57;;
74383;SDS011;62824;52.994;-3.936;2024-01-15T11:57:09;0.65;;;0.50;;
74383;SDS011;62824;52.994;-3.936;2024-01-15T11:59:52;3.72;;;1.13;;
74383;SDS011;62824;52.994;-3.936;2024-01-15T12:05:36;2.78;;;1.05;;
74383;SDS011;62824;52.994;-3.936;2024-01-15T12:08:23;2.05;;;0.70;;
74383;SDS011;62824;52.994;-3.936;2024-01-15T12:10:53;1.02;;;0.40;;
74383;SDS011;62824;52.994;-3.936;2024-01-15T12:19:51;1.58;;;0.55;;
74383;SDS011;62824;52.994;-3.936;2024-01-15T12:22:49;1.13;;;0.70;;
74383;SDS011;62824;52.994;-3.936;2024-01-15T12:25:15;1.50;;;0.52;;
74383;SDS011;62824;52.994;-3.936;2024-01-15T12:27:45;0.88;;;0.70;;
74383;SDS011;62824;52.994;-3.936;2024-01-15T12:30:12;1.95;;;0.60;;
74383;SDS011;62824;52.994;-3.936;2024-01-15T12:32:42;3.75;;;0.57;;
74383;SDS011;62824;52.994;-3.936;2024-01-15T12:35:09;0.88;;;0.50;;
74383;SDS011;62824;52.994;-3.936;2024-01-15T15:04:16;1.15;;;0.75;;
74383;SDS011;62824;52.994;-3.936;2024-01-15T15:06:43;4.90;;;0.82;;
74383;SDS011;62824;52.994;-3.936;2024-01-15T15:09:12;2.25;;;0.98;;
74383;SDS011;62824;52.994;-3.936;2024-01-15T15:12:04;2.83;;;0.85;;
74383;SDS011;62824;52.994;-3.936;2024-01-15T15:14:44;3.45;;;1.60;;
74383;SDS011;62824;52.994;-3.936;2024-01-15T15:17:10;3.60;;;1.30;;
74383;SDS011;62824;52.994;-3.936;2024-01-15T15:19:40;10.23;;;2.30;;
74383;SDS011;62824;52.994;-3.936;2024-01-15T15:22:06;3.05;;;1.40;;
74383;SDS011;62824;52.994;-3.936;2024-01-15T15:33:22;5.68;;;1.50;;
74383;SDS011;62824;52.994;-3.936;2024-01-15T15:35:48;3.80;;;1.52;;
74383;SDS011;62824;52.994;-3.936;2024-01-15T15:38:20;4.65;;;1.40;;
74383;SDS011;62824;52.994;-3.936;2024-01-15T15:40:48;4.30;;;2.03;;
74383;SDS011;62824;52.994;-3.936;2024-01-15T15:43:43;2.22;;;1.08;;
74383;SDS011;62824;52.994;-3.936;2024-01-15T15:46:35;1.73;;;1.20;;
74383;SDS011;62824;52.994;-3.936;2024-01-15T15:49:03;5.88;;;1.30;;
74383;SDS011;62824;52.994;-3.936;2024-01-15T15:51:32;1.90;;;0.63;;
74383;SDS011;62824;52.994;-3.936;2024-01-15T15:59:55;8.07;;;1.30;;
74383;SDS011;62824;52.994;-3.936;2024-01-15T16:02:32;0.98;;;0.80;;
74383;SDS011;62824;52.994;-3.936;2024-01-15T16:04:59;6.55;;;1.85;;
74383;SDS011;62824;52.994;-3.936;2024-01-15T16:07:25;6.78;;;2.03;;
74383;SDS011;62824;52.994;-3.936;2024-01-15T16:13:28;3.80;;;1.60;;
74383;SDS011;62824;52.994;-3.936;2024-01-15T16:15:55;3.13;;;0.90;;
74383;SDS011;62824;52.994;-3.936;2024-01-15T16:18:25;11.43;;;1.73;;
74383;SDS011;62824;52.994;-3.936;2024-01-15T16:20:52;4.03;;;1.25;;
74383;SDS011;62824;52.994;-3.936;2024-01-15T16:24:09;19.73;;;1.77;;
74383;SDS011;62824;52.994;-3.936;2024-01-15T16:27:02;4.47;;;1.55;;
74383;SDS011;62824;52.994;-3.936;2024-01-15T16:29:40;2.97;;;0.60;;
74383;SDS011;62824;52.994;-3.936;2024-01-15T16:32:29;3.05;;;0.95;;
74383;SDS011;62824;52.994;-3.936;2024-01-15T16:34:56;2.88;;;1.00;;
74383;SDS011;62824;52.994;-3.936;2024-01-15T16:37:24;1.10;;;0.88;;
74383;SDS011;62824;52.994;-3.936;2024-01-15T16:39:52;0.20;;;0.20;;
74383;SDS011;62824;52.994;-3.936;2024-01-15T16:42:31;1.92;;;1.20;;
74383;SDS011;62824;52.994;-3.936;2024-01-15T16:56:33;3.75;;;1.35;;
74383;SDS011;62824;52.994;-3.936;2024-01-15T17:22:14;10.13;;;2.40;;
74383;SDS011;62824;52.994;-3.936;2024-01-15T17:24:40;4.03;;;1.20;;
74383;SDS011;62824;52.994;-3.936;2024-01-15T17:27:05;6.60;;;2.50;;
74383;SDS011;62824;52.994;-3.936;2024-01-15T17:36:07;5.82;;;3.17;;
74383;SDS011;62824;52.994;-3.936;2024-01-15T17:38:37;2.60;;;1.00;;
74383;SDS011;62824;52.994;-3.936;2024-01-15T17:41:03;3.42;;;1.30;;
74383;SDS011;62824;52.994;-3.936;2024-01-15T17:43:29;3.38;;;1.58;;
74383;SDS011;62824;52.994;-3.936;2024-01-15T17:45:57;4.28;;;1.15;;
74383;SDS011;62824;52.994;-3.936;2024-01-15T17:48:26;4.57;;;1.80;;
74383;SDS011;62824;52.994;-3.936;2024-01-15T17:50:58;4.50;;;2.10;;
74383;SDS011;62824;52.994;-3.936;2024-01-15T17:53:24;10.30;;;2.88;;
74383;SDS011;62824;52.994;-3.936;2024-01-15T17:55:51;6.57;;;2.00;;
74383;SDS011;62824;52.994;-3.936;2024-01-15T17:58:17;9.73;;;2.92;;
74383;SDS011;62824;52.994;-3.936;2024-01-15T18:00:45;4.32;;;2.25;;
74383;SDS011;62824;52.994;-3.936;2024-01-15T18:03:11;8.02;;;3.00;;
74383;SDS011;62824;52.994;-3.936;2024-01-15T18:05:37;7.45;;;3.00;;
74383;SDS011;62824;52.994;-3.936;2024-01-15T18:08:03;11.90;;;6.70;;
74383;SDS011;62824;52.994;-3.936;2024-01-15T18:10:29;7.53;;;3.63;;
74383;SDS011;62824;52.994;-3.936;2024-01-15T18:12:55;6.43;;;2.83;;
74383;SDS011;62824;52.994;-3.936;2024-01-15T18:15:21;6.65;;;3.78;;
74383;SDS011;62824;52.994;-3.936;2024-01-15T18:17:47;9.52;;;4.70;;
74383;SDS011;62824;52.994;-3.936;2024-01-15T18:20:13;5.63;;;4.05;;
74383;SDS011;62824;52.994;-3.936;2024-01-15T18:22:39;5.03;;;1.27;;
74383;SDS011;62824;52.994;-3.936;2024-01-15T18:25:05;13.32;;;5.40;;
74383;SDS011;62824;52.994;-3.936;2024-01-15T18:27:31;12.07;;;4.72;;
74383;SDS011;62824;52.994;-3.936;2024-01-15T18:29:57;26.48;;;12.65;;
74383;SDS011;62824;52.994;-3.936;2024-01-15T18:32:23;6.57;;;4.72;;
74383;SDS011;62824;52.994;-3.936;2024-01-15T18:34:49;11.07;;;6.28;;
74383;SDS011;62824;52.994;-3.936;2024-01-15T18:37:15;10.27;;;5.82;;
74383;SDS011;62824;52.994;-3.936;2024-01-15T18:39:44;15.07;;;8.30;;
74383;SDS011;62824;52.994;-3.936;2024-01-15T18:42:10;7.22;;;3.92;;
74383;SDS011;62824;52.994;-3.936;2024-01-15T18:44:36;10.07;;;5.55;;
74383;SDS011;62824;52.994;-3.936;2024-01-15T18:47:02;8.65;;;6.97;;
74383;SDS011;62824;52.994;-3.936;2024-01-15T18:49:28;2.85;;;1.92;;
74383;SDS011;62824;52.994;-3.936;2024-01-15T18:51:54;6.60;;;3.10;;
74383;SDS011;62824;52.994;-3.936;2024-01-15T18:54:21;3.15;;;1.20;;
74383;SDS011;62824;52.994;-3.936;2024-01-15T18:56:47;4.72;;;2.42;;
74383;SDS011;62824;52.994;-3.936;2024-01-15T18:59:13;5.15;;;2.67;;
74383;SDS011;62824;52.994;-3.936;2024-01-15T19:01:39;7.20;;;3.05;;
74383;SDS011;62824;52.994;-3.936;2024-01-15T19:04:05;5.53;;;2.75;;
74383;SDS011;62824;52.994;-3.936;2024-01-15T19:06:32;5.47;;;2.35;;
74383;SDS011;62824;52.994;-3.936;2024-01-15T19:09:00;5.20;;;3.15;;
74383;SDS011;62824;52.994;-3.936;2024-01-15T19:11:35;9.20;;;3.55;;
74383;SDS011;62824;52.994;-3.936;2024-01-15T19:14:05;8.02;;;3.72;;
74383;SDS011;62824;52.994;-3.936;2024-01-15T19:16:35;5.80;;;4.47;;
74383;SDS011;62824;52.994;-3.936;2024-01-15T19:19:00;12.95;;;6.65;;
74383;SDS011;62824;52.994;-3.936;2024-01-15T19:21:28;5.38;;;3.78;;
74383;SDS011;62824;52.994;-3.936;2024-01-15T19:23:55;4.40;;;3.33;;
74383;SDS011;62824;52.994;-3.936;2024-01-15T19:26:21;11.38;;;5.47;;
74383;SDS011;62824;52.994;-3.936;2024-01-15T19:28:48;13.55;;;6.28;;
74383;SDS011;62824;52.994;-3.936;2024-01-15T19:31:13;17.30;;;8.27;;
74383;SDS011;62824;52.994;-3.936;2024-01-15T19:33:39;6.18;;;3.92;;
74383;SDS011;62824;52.994;-3.936;2024-01-15T19:36:05;10.18;;;4.43;;
74383;SDS011;62824;52.994;-3.936;2024-01-15T19:38:31;8.48;;;4.13;;
74383;SDS011;62824;52.994;-3.936;2024-01-15T19:40:57;10.85;;;4.93;;
74383;SDS011;62824;52.994;-3.936;2024-01-15T19:43:23;14.30;;;7.07;;
74383;SDS011;62824;52.994;-3.936;2024-01-15T19:45:52;21.52;;;8.55;;
74383;SDS011;62824;52.994;-3.936;2024-01-15T19:48:17;15.80;;;9.18;;
74383;SDS011;62824;52.994;-3.936;2024-01-15T19:50:45;22.42;;;13.27;;
74383;SDS011;62824;52.994;-3.936;2024-01-15T19:53:11;16.38;;;9.57;;
74383;SDS011;62824;52.994;-3.936;2024-01-15T19:55:36;20.42;;;11.25;;
74383;SDS011;62824;52.994;-3.936;2024-01-15T19:58:03;26.27;;;13.20;;
74383;SDS011;62824;52.994;-3.936;2024-01-15T20:00:29;12.63;;;8.88;;
74383;SDS011;62824;52.994;-3.936;2024-01-15T20:02:54;12.23;;;6.43;;
74383;SDS011;62824;52.994;-3.936;2024-01-15T20:05:20;10.45;;;6.00;;
74383;SDS011;62824;52.994;-3.936;2024-01-15T20:07:46;11.20;;;6.22;;
74383;SDS011;62824;52.994;-3.936;2024-01-15T20:10:12;8.82;;;5.32;;
74383;SDS011;62824;52.994;-3.936;2024-01-15T20:12:38;8.18;;;4.20;;
74383;SDS011;62824;52.994;-3.936;2024-01-15T20:15:05;7.03;;;3.30;;
74383;SDS011;62824;52.994;-3.936;2024-01-15T20:17:31;5.50;;;3.38;;
74383;SDS011;62824;52.994;-3.936;2024-01-15T20:19:56;8.50;;;4.22;;
74383;SDS011;62824;52.994;-3.936;2024-01-15T20:22:22;8.80;;;5.10;;
74383;SDS011;62824;52.994;-3.936;2024-01-15T20:24:48;10.10;;;4.63;;
74383;SDS011;62824;52.994;-3.936;2024-01-15T20:27:14;14.55;;;5.88;;
74383;SDS011;62824;52.994;-3.936;2024-01-15T20:29:41;12.90;;;7.25;;
74383;SDS011;62824;52.994;-3.936;2024-01-15T20:32:07;13.30;;;5.85;;
74383;SDS011;62824;52.994;-3.936;2024-01-15T20:34:33;7.35;;;3.70;;
74383;SDS011;62824;52.994;-3.936;2024-01-15T20:36:59;25.40;;;22.90;;
74383;SDS011;62824;52.994;-3.936;2024-01-15T20:39:24;12.32;;;9.52;;
74383;SDS011;62824;52.994;-3.936;2024-01-15T20:41:50;12.50;;;7.50;;
74383;SDS011;62824;52.994;-3.936;2024-01-15T20:44:16;11.18;;;5.85;;
74383;SDS011;62824;52.994;-3.936;2024-01-15T20:46:43;11.63;;;6.70;;
74383;SDS011;62824;52.994;-3.936;2024-01-15T20:49:09;22.63;;;10.85;;
74383;SDS011;62824;52.994;-3.936;2024-01-15T20:51:35;26.15;;;15.18;;
74383;SDS011;62824;52.994;-3.936;2024-01-15T20:54:00;22.50;;;13.13;;
74383;SDS011;62824;52.994;-3.936;2024-01-15T20:56:26;16.10;;;8.02;;
74383;SDS011;62824;52.994;-3.936;2024-01-15T20:58:52;14.65;;;7.60;;
74383;SDS011;62824;52.994;-3.936;2024-01-15T21:01:18;15.18;;;7.45;;
74383;SDS011;62824;52.994;-3.936;2024-01-15T21:03:44;11.40;;;6.82;;
74383;SDS011;62824;52.994;-3.936;2024-01-15T21:06:10;13.07;;;6.95;;
74383;SDS011;62824;52.994;-3.936;2024-01-15T21:08:36;13.15;;;7.90;;
74383;SDS011;62824;52.994;-3.936;2024-01-15T21:11:02;9.18;;;5.03;;
74383;SDS011;62824;52.994;-3.936;2024-01-15T21:13:29;9.20;;;6.55;;
74383;SDS011;62824;52.994;-3.936;2024-01-15T21:15:55;10.35;;;5.05;;
74383;SDS011;62824;52.994;-3.936;2024-01-15T21:18:21;9.90;;;5.07;;
74383;SDS011;62824;52.994;-3.936;2024-01-15T21:20:47;6.88;;;4.72;;
74383;SDS011;62824;52.994;-3.936;2024-01-15T21:23:13;7.32;;;4.88;;
74383;SDS011;62824;52.994;-3.936;2024-01-15T21:25:39;10.38;;;4.03;;
74383;SDS011;62824;52.994;-3.936;2024-01-15T21:28:05;11.85;;;5.60;;
74383;SDS011;62824;52.994;-3.936;2024-01-15T21:30:32;11.40;;;5.63;;
74383;SDS011;62824;52.994;-3.936;2024-01-15T21:33:01;12.82;;;5.43;;
74383;SDS011;62824;52.994;-3.936;2024-01-15T21:35:29;8.77;;;5.18;;
74383;SDS011;62824;52.994;-3.936;2024-01-15T21:37:55;8.30;;;6.05;;
74383;SDS011;62824;52.994;-3.936;2024-01-15T21:40:24;11.07;;;4.72;;
74383;SDS011;62824;52.994;-3.936;2024-01-15T21:42:50;8.50;;;4.70;;
74383;SDS011;62824;52.994;-3.936;2024-01-15T21:45:16;5.57;;;3.67;;
74383;SDS011;62824;52.994;-3.936;2024-01-15T21:47:42;6.75;;;1.95;;
74383;SDS011;62824;52.994;-3.936;2024-01-15T21:50:08;2.63;;;1.75;;
74383;SDS011;62824;52.994;-3.936;2024-01-15T21:52:34;4.20;;;2.22;;
74383;SDS011;62824;52.994;-3.936;2024-01-15T21:55:00;3.63;;;1.83;;
74383;SDS011;62824;52.994;-3.936;2024-01-15T21:57:27;3.83;;;2.17;;
74383;SDS011;62824;52.994;-3.936;2024-01-15T21:59:53;9.70;;;2.67;;
74383;SDS011;62824;52.994;-3.936;2024-01-15T22:02:19;4.38;;;1.98;;
74383;SDS011;62824;52.994;-3.936;2024-01-15T22:04:45;6.25;;;1.95;;
74383;SDS011;62824;52.994;-3.936;2024-01-15T22:07:10;7.13;;;2.03;;
74383;SDS011;62824;52.994;-3.936;2024-01-15T22:09:36;6.00;;;2.42;;
74383;SDS011;62824;52.994;-3.936;2024-01-15T22:12:02;4.45;;;2.25;;
74383;SDS011;62824;52.994;-3.936;2024-01-15T22:14:28;5.32;;;2.28;;
74383;SDS011;62824;52.994;-3.936;2024-01-15T22:16:54;4.78;;;2.10;;
74383;SDS011;62824;52.994;-3.936;2024-01-15T22:19:20;7.53;;;3.05;;
74383;SDS011;62824;52.994;-3.936;2024-01-15T22:21:46;7.38;;;2.53;;
74383;SDS011;62824;52.994;-3.936;2024-01-15T22:24:13;9.85;;;3.67;;
74383;SDS011;62824;52.994;-3.936;2024-01-15T22:26:40;4.93;;;3.00;;
74383;SDS011;62824;52.994;-3.936;2024-01-15T22:29:06;5.53;;;3.42;;
74383;SDS011;62824;52.994;-3.936;2024-01-15T22:31:32;5.57;;;3.22;;
74383;SDS011;62824;52.994;-3.936;2024-01-15T22:33:58;9.50;;;2.83;;
74383;SDS011;62824;52.994;-3.936;2024-01-15T22:36:25;3.28;;;1.88;;
74383;SDS011;62824;52.994;-3.936;2024-01-15T22:38:51;4.38;;;2.35;;
74383;SDS011;62824;52.994;-3.936;2024-01-15T22:41:17;4.38;;;2.03;;
74383;SDS011;62824;52.994;-3.936;2024-01-15T22:43:43;4.43;;;2.53;;
74383;SDS011;62824;52.994;-3.936;2024-01-15T22:46:09;4.00;;;2.38;;
74383;SDS011;62824;52.994;-3.936;2024-01-15T22:48:35;4.38;;;2.33;;
74383;SDS011;62824;52.994;-3.936;2024-01-15T22:51:02;5.80;;;2.33;;
74383;SDS011;62824;52.994;-3.936;2024-01-15T22:53:28;4.93;;;3.03;;
74383;SDS011;62824;52.994;-3.936;2024-01-15T22:55:54;3.08;;;1.88;;
74383;SDS011;62824;52.994;-3.936;2024-01-15T22:58:20;7.40;;;3.40;;
74383;SDS011;62824;52.994;-3.936;2024-01-15T23:00:47;5.55;;;3.50;;
74383;SDS011;62824;52.994;-3.936;2024-01-15T23:03:14;7.53;;;3.22;;
74383;SDS011;62824;52.994;-3.936;2024-01-15T23:05:40;7.80;;;3.70;;
74383;SDS011;62824;52.994;-3.936;2024-01-15T23:08:06;6.68;;;2.88;;
74383;SDS011;62824;52.994;-3.936;2024-01-15T23:10:31;4.57;;;2.47;;
74383;SDS011;62824;52.994;-3.936;2024-01-15T23:12:57;4.70;;;2.45;;
74383;SDS011;62824;52.994;-3.936;2024-01-15T23:15:23;6.07;;;3.03;;
74383;SDS011;62824;52.994;-3.936;2024-01-15T23:17:50;8.57;;;4.25;;
74383;SDS011;62824;52.994;-3.936;2024-01-15T23:20:16;4.32;;;2.72;;
74383;SDS011;62824;52.994;-3.936;2024-01-15T23:22:43;5.55;;;2.50;;
74383;SDS011;62824;52.994;-3.936;2024-01-15T23:25:09;7.97;;;2.83;;
74383;SDS011;62824;52.994;-3.936;2024-01-15T23:27:35;13.05;;;5.13;;
74383;SDS011;62824;52.994;-3.936;2024-01-15T23:30:02;6.97;;;3.03;;
74383;SDS011;62824;52.994;-3.936;2024-01-15T23:32:29;4.80;;;3.08;;
74383;SDS011;62824;52.994;-3.936;2024-01-15T23:34:58;7.32;;;3.10;;
74383;SDS011;62824;52.994;-3.936;2024-01-15T23:37:24;6.88;;;3.85;;
74383;SDS011;62824;52.994;-3.936;2024-01-15T23:39:53;7.03;;;3.35;;
74383;SDS011;62824;52.994;-3.936;2024-01-15T23:42:19;9.95;;;3.78;;
74383;SDS011;62824;52.994;-3.936;2024-01-15T23:44:45;9.18;;;4.05;;
74383;SDS011;62824;52.994;-3.936;2024-01-15T23:47:11;10.50;;;4.20;;
74383;SDS011;62824;52.994;-3.936;2024-01-15T23:49:36;10.80;;;4.72;;
74383;SDS011;62824;52.994;-3.936;2024-01-15T23:52:02;6.55;;;3.40;;
74383;SDS011;62824;52.994;-3.936;2024-01-15T23:54:28;6.70;;;2.75;;
74383;SDS011;62824;52.994;-3.936;2024-01-15T23:56:54;4.50;;;2.67;;
74383;SDS011;62824;52.994;-3.936;2024-01-15T23:59:20;5.35;;;2.47;;
